Time;durP1;ratioP1;P1;durP2;ratioP2;P2;SDS_P1;SDS_P2;PMS_P1;PMS_P2;Temp;Humidity;BMP_temperature;BMP_pressure;BME280_temperature;BME280_humidity;BME280_pressure;Samples;Min_cycle;Max_cycle;Signal;HPM_P1;HPM_P2
2022/04/24 02:00:08;;;;;;;0.50;0.50;;;;;;;;;;7387191;19;20214;-79
2022/04/24 02:02:34;;;;;;;0.37;0.37;;;;;;;;;;7393089;19;20151;-79
2022/04/24 02:05:01;;;;;;;0.60;0.43;;;;;;;;;;7394510;19;20142;-79
2022/04/24 02:10:32;;;;;;;0.70;0.37;;;;;;;;;;7396385;19;20116;-79
2022/04/24 02:12:58;;;;;;;1.03;0.53;;;;;;;;;;7394692;19;20163;-79
2022/04/24 02:15:25;;;;;;;0.93;0.40;;;;;;;;;;7392932;19;20176;-79
2022/04/24 02:17:51;;;;;;;0.43;0.40;;;;;;;;;;7394226;19;20148;-79
2022/04/24 02:20:17;;;;;;;0.40;0.40;;;;;;;;;;7395412;19;20133;-79
2022/04/24 02:22:43;;;;;;;0.40;0.40;;;;;;;;;;7393626;19;20148;-79
2022/04/24 02:25:10;;;;;;;0.37;0.37;;;;;;;;;;7385938;19;20257;-79
2022/04/24 02:27:36;;;;;;;0.60;0.50;;;;;;;;;;7393348;19;20135;-79
2022/04/24 02:30:02;;;;;;;0.73;0.43;;;;;;;;;;7395144;19;20182;-79
2022/04/24 02:32:28;;;;;;;0.60;0.60;;;;;;;;;;7393242;19;20672;-79
2022/04/24 02:34:55;;;;;;;0.40;0.40;;;;;;;;;;7391433;19;20168;-79
2022/04/24 02:37:22;;;;;;;0.57;0.50;;;;;;;;;;7393453;19;20167;-79
2022/04/24 02:39:48;;;;;;;0.60;0.50;;;;;;;;;;7393416;19;20139;-80
2022/04/24 02:42:14;;;;;;;2.60;0.60;;;;;;;;;;7393977;19;20572;-80
2022/04/24 02:47:22;;;;;;;0.50;0.50;;;;;;;;;;7394325;19;20713;-79
2022/04/24 02:49:49;;;;;;;0.73;0.50;;;;;;;;;;7400372;19;20143;-80
2022/04/24 02:52:15;;;;;;;0.40;0.40;;;;;;;;;;7399874;19;20132;-79
2022/04/24 02:54:41;;;;;;;0.93;0.47;;;;;;;;;;7398490;19;20617;-78
2022/04/24 02:57:07;;;;;;;0.70;0.50;;;;;;;;;;7401510;19;20218;-79
2022/04/24 02:59:33;;;;;;;0.40;0.40;;;;;;;;;;7401570;19;20128;-79
2022/04/24 03:01:59;;;;;;;0.37;0.37;;;;;;;;;;7400348;19;20147;-78
2022/04/24 03:04:26;;;;;;;0.87;0.50;;;;;;;;;;7398076;19;20631;-79
2022/04/24 03:06:52;;;;;;;0.40;0.40;;;;;;;;;;7396684;19;20540;-78
2022/04/24 03:09:18;;;;;;;0.30;0.30;;;;;;;;;;7396642;19;20161;-78
2022/04/24 03:11:44;;;;;;;0.43;0.43;;;;;;;;;;7397761;19;20119;-79
2022/04/24 03:14:10;;;;;;;0.40;0.40;;;;;;;;;;7397467;19;20131;-79
2022/04/24 03:16:36;;;;;;;0.67;0.60;;;;;;;;;;7400408;19;20128;-78
2022/04/24 03:19:02;;;;;;;0.30;0.30;;;;;;;;;;7399001;19;20132;-79
2022/04/24 03:21:29;;;;;;;1.03;0.40;;;;;;;;;;7400918;19;20139;-79
2022/04/24 03:23:55;;;;;;;0.60;0.60;;;;;;;;;;7398318;19;20628;-79
2022/04/24 03:26:21;;;;;;;0.40;0.40;;;;;;;;;;7398606;19;20238;-79
2022/04/24 03:28:47;;;;;;;0.70;0.30;;;;;;;;;;7398734;19;20128;-79
2022/04/24 03:31:13;;;;;;;0.53;0.40;;;;;;;;;;7399685;19;20131;-79
2022/04/24 03:33:39;;;;;;;0.30;0.30;;;;;;;;;;7399311;19;20136;-78
2022/04/24 03:36:06;;;;;;;0.63;0.40;;;;;;;;;;7402752;19;20210;-79
2022/04/24 03:38:32;;;;;;;0.30;0.30;;;;;;;;;;7399866;19;20173;-79
2022/04/24 03:40:59;;;;;;;0.40;0.40;;;;;;;;;;7415797;19;20133;-79
2022/04/24 03:43:25;;;;;;;0.30;0.30;;;;;;;;;;7432156;19;20168;-80
2022/04/24 03:45:51;;;;;;;0.37;0.37;;;;;;;;;;7430258;19;20139;-79
2022/04/24 03:48:18;;;;;;;0.40;0.40;;;;;;;;;;7429690;19;20119;-79
2022/04/24 03:50:44;;;;;;;0.50;0.50;;;;;;;;;;7407658;19;20164;-79
2022/04/24 03:53:10;;;;;;;0.40;0.40;;;;;;;;;;7401486;19;20236;-79
2022/04/24 03:55:37;;;;;;;0.37;0.37;;;;;;;;;;7397119;19;20186;-79
2022/04/24 03:58:03;;;;;;;0.40;0.40;;;;;;;;;;7429046;19;20178;-79
2022/04/24 04:00:29;;;;;;;0.33;0.33;;;;;;;;;;7431927;19;20153;-79
2022/04/24 04:02:55;;;;;;;0.40;0.40;;;;;;;;;;7431034;19;20138;-79
2022/04/24 04:08:28;;;;;;;0.47;0.47;;;;;;;;;;7393813;19;20186;-80
2022/04/24 04:10:54;;;;;;;0.33;0.33;;;;;;;;;;7397509;19;20140;-78
2022/04/24 04:16:24;;;;;;;0.80;0.47;;;;;;;;;;7395176;19;20210;-80
2022/04/24 04:18:50;;;;;;;0.87;0.40;;;;;;;;;;7397271;19;20155;-80
2022/04/24 04:21:16;;;;;;;1.03;0.60;;;;;;;;;;7396844;19;20133;-80
2022/04/24 04:23:42;;;;;;;0.40;0.40;;;;;;;;;;7397164;19;20163;-78
2022/04/24 04:26:09;;;;;;;0.40;0.40;;;;;;;;;;7397768;19;20201;-78
2022/04/24 04:28:36;;;;;;;1.60;0.50;;;;;;;;;;7396057;19;20575;-78
2022/04/24 04:31:03;;;;;;;0.50;0.50;;;;;;;;;;7395183;19;20526;-82
2022/04/24 04:36:18;;;;;;;0.50;0.50;;;;;;;;;;7369859;19;20173;-79
2022/04/24 04:38:49;;;;;;;0.50;0.50;;;;;;;;;;7397317;19;20136;-80
2022/04/24 04:41:15;;;;;;;0.40;0.30;;;;;;;;;;7396658;19;20155;-78
2022/04/24 04:43:41;;;;;;;0.43;0.43;;;;;;;;;;7396897;19;20560;-78
2022/04/24 04:46:08;;;;;;;0.30;0.30;;;;;;;;;;7395206;19;20170;-78
2022/04/24 04:48:34;;;;;;;0.30;0.30;;;;;;;;;;7394227;19;20136;-78
2022/04/24 04:51:01;;;;;;;0.40;0.40;;;;;;;;;;7398498;19;20115;-79
2022/04/24 04:53:27;;;;;;;0.67;0.40;;;;;;;;;;7396089;19;20142;-79
2022/04/24 04:55:53;;;;;;;0.53;0.53;;;;;;;;;;7398555;19;20477;-78
2022/04/24 04:58:19;;;;;;;0.97;0.40;;;;;;;;;;7399553;19;20188;-78
2022/04/24 05:00:46;;;;;;;0.43;0.40;;;;;;;;;;7396776;19;20143;-79
2022/04/24 05:03:12;;;;;;;0.70;0.60;;;;;;;;;;7394997;19;20624;-79
2022/04/24 05:08:14;;;;;;;0.70;0.50;;;;;;;;;;7370278;19;20209;-79
2022/04/24 05:10:41;;;;;;;1.00;0.70;;;;;;;;;;7394465;19;20475;-79
2022/04/24 05:13:07;;;;;;;0.67;0.60;;;;;;;;;;7397076;19;20130;-79
2022/04/24 05:15:33;;;;;;;1.60;1.50;;;;;;;;;;7394592;19;20188;-79
2022/04/24 05:17:59;;;;;;;1.37;1.27;;;;;;;;;;7397305;19;20138;-79
2022/04/24 05:20:25;;;;;;;3.40;3.10;;;;;;;;;;7397418;19;20311;-79
2022/04/24 05:23:10;;;;;;;5.10;4.53;;;;;;;;;;7412945;19;20139;-80
2022/04/24 05:25:36;;;;;;;1.63;1.53;;;;;;;;;;7423386;19;20169;-79
2022/04/24 05:28:05;;;;;;;1.90;1.70;;;;;;;;;;7419678;19;20131;-79
2022/04/24 05:30:32;;;;;;;1.70;1.60;;;;;;;;;;7395246;19;20207;-79
2022/04/24 05:32:58;;;;;;;1.37;1.10;;;;;;;;;;7396831;19;20136;-79
2022/04/24 05:35:24;;;;;;;0.97;0.97;;;;;;;;;;7395021;19;20139;-79
2022/04/24 05:37:50;;;;;;;0.90;0.90;;;;;;;;;;7395468;19;20578;-79
2022/04/24 05:40:17;;;;;;;2.80;1.10;;;;;;;;;;7395500;19;20144;-79
2022/04/24 05:42:51;;;;;;;1.40;1.30;;;;;;;;;;7395468;19;20479;-79
2022/04/24 05:45:18;;;;;;;1.27;1.00;;;;;;;;;;7394103;19;20164;-78
2022/04/24 05:47:47;;;;;;;1.23;1.13;;;;;;;;;;7396228;19;20117;-78
2022/04/24 05:50:13;;;;;;;1.10;0.60;;;;;;;;;;7396527;19;20117;-78
2022/04/24 05:52:40;;;;;;;1.20;1.10;;;;;;;;;;7396375;19;20138;-78
2022/04/24 05:55:06;;;;;;;0.80;0.80;;;;;;;;;;7395187;19;20136;-78
2022/04/24 05:57:32;;;;;;;0.63;0.63;;;;;;;;;;7396404;19;20205;-78
2022/04/24 05:59:58;;;;;;;0.70;0.70;;;;;;;;;;7395741;19;20140;-78
2022/04/24 06:02:25;;;;;;;0.97;0.70;;;;;;;;;;7394153;19;20189;-78
2022/04/24 06:04:51;;;;;;;0.80;0.73;;;;;;;;;;7394786;19;20184;-78
2022/04/24 06:07:17;;;;;;;0.60;0.60;;;;;;;;;;7395764;19;20125;-78
2022/04/24 06:09:43;;;;;;;0.60;0.60;;;;;;;;;;7392294;19;20133;-78
2022/04/24 06:12:09;;;;;;;2.13;0.93;;;;;;;;;;7395823;19;20142;-78
2022/04/24 06:14:36;;;;;;;1.00;0.70;;;;;;;;;;7394063;19;20612;-79
2022/04/24 06:17:03;;;;;;;0.53;0.50;;;;;;;;;;7394348;19;20144;-78
2022/04/24 06:19:29;;;;;;;0.57;0.53;;;;;;;;;;7395852;19;20132;-78
2022/04/24 06:21:55;;;;;;;1.20;0.70;;;;;;;;;;7396902;19;20148;-79
2022/04/24 06:24:22;;;;;;;1.30;0.60;;;;;;;;;;7398771;19;20154;-79
2022/04/24 06:26:48;;;;;;;0.60;0.60;;;;;;;;;;7401078;19;20607;-79
2022/04/24 06:29:14;;;;;;;0.83;0.43;;;;;;;;;;7400467;19;20109;-79
2022/04/24 06:31:41;;;;;;;0.90;0.50;;;;;;;;;;7405456;19;20564;-79
2022/04/24 06:37:11;;;;;;;0.50;0.50;;;;;;;;;;7406754;19;20486;-79
2022/04/24 06:39:37;;;;;;;0.60;0.50;;;;;;;;;;7406935;19;20208;-79
2022/04/24 06:42:03;;;;;;;0.70;0.40;;;;;;;;;;7408611;19;20117;-79
2022/04/24 06:44:30;;;;;;;0.53;0.53;;;;;;;;;;7411839;19;20220;-79
2022/04/24 06:46:56;;;;;;;0.50;0.50;;;;;;;;;;7408628;19;20129;-78
2022/04/24 06:52:26;;;;;;;0.50;0.50;;;;;;;;;;7416029;19;20096;-78
2022/04/24 06:54:54;;;;;;;0.60;0.40;;;;;;;;;;7404787;19;20161;-79
2022/04/24 06:57:20;;;;;;;0.40;0.40;;;;;;;;;;7401033;19;20205;-79
2022/04/24 06:59:48;;;;;;;0.90;0.83;;;;;;;;;;7399413;19;20133;-77
2022/04/24 07:02:14;;;;;;;0.90;0.53;;;;;;;;;;7396301;19;20133;-79
2022/04/24 07:04:40;;;;;;;0.83;0.70;;;;;;;;;;7391946;19;20156;-76
2022/04/24 07:07:06;;;;;;;1.17;1.07;;;;;;;;;;7397108;19;20522;-77
2022/04/24 07:09:32;;;;;;;1.77;1.67;;;;;;;;;;7409156;19;20137;-77
2022/04/24 07:11:59;;;;;;;1.70;1.33;;;;;;;;;;7410459;19;20453;-77
2022/04/24 07:14:25;;;;;;;1.30;1.10;;;;;;;;;;7393127;19;20664;-77
2022/04/24 07:16:51;;;;;;;1.27;1.13;;;;;;;;;;7391943;19;20117;-78
2022/04/24 07:19:17;;;;;;;1.27;1.00;;;;;;;;;;7388909;19;20514;-77
2022/04/24 07:21:43;;;;;;;1.37;1.27;;;;;;;;;;7392776;19;20372;-77
2022/04/24 07:24:09;;;;;;;1.73;1.17;;;;;;;;;;7389407;19;20161;-77
2022/04/24 07:26:35;;;;;;;0.70;0.70;;;;;;;;;;7394905;19;20133;-77
2022/04/24 07:29:01;;;;;;;0.63;0.60;;;;;;;;;;7393212;19;20201;-77
2022/04/24 07:31:27;;;;;;;13.97;12.53;;;;;;;;;;7393987;19;20125;-77
2022/04/24 07:33:55;;;;;;;3.17;2.87;;;;;;;;;;7392122;19;20642;-77
2022/04/24 07:36:21;;;;;;;2.43;2.10;;;;;;;;;;7395937;19;20129;-77
2022/04/24 07:38:47;;;;;;;3.37;2.50;;;;;;;;;;7395319;19;20145;-78
2022/04/24 07:41:13;;;;;;;1.30;1.10;;;;;;;;;;7394308;19;20127;-77
2022/04/24 07:43:48;;;;;;;8.27;7.07;;;;;;;;;;7395497;19;20580;-77
2022/04/24 07:46:15;;;;;;;4.53;3.80;;;;;;;;;;7390960;19;20665;-76
2022/04/24 07:48:41;;;;;;;1.40;0.70;;;;;;;;;;7391390;19;20125;-77
2022/04/24 07:51:07;;;;;;;1.07;0.63;;;;;;;;;;7395058;19;20136;-77
2022/04/24 07:53:33;;;;;;;1.60;0.60;;;;;;;;;;7392884;19;20268;-77
2022/04/24 07:55:59;;;;;;;1.37;1.20;;;;;;;;;;7395532;19;20120;-77
2022/04/24 07:58:25;;;;;;;0.70;0.70;;;;;;;;;;7398671;19;20117;-77
2022/04/24 08:00:51;;;;;;;0.50;0.50;;;;;;;;;;7399346;19;20459;-77
2022/04/24 08:03:19;;;;;;;2.20;1.90;;;;;;;;;;7406044;19;20117;-77
2022/04/24 08:05:50;;;;;;;3.30;2.27;;;;;;;;;;7402534;19;20129;-78
2022/04/24 08:08:17;;;;;;;9.93;8.90;;;;;;;;;;7396819;19;20156;-78
2022/04/24 08:10:49;;;;;;;0.80;0.80;;;;;;;;;;7396541;19;20214;-78
2022/04/24 08:13:16;;;;;;;2.63;2.43;;;;;;;;;;7395721;19;20133;-78
2022/04/24 08:15:42;;;;;;;2.33;1.67;;;;;;;;;;7397082;19;20121;-78
2022/04/24 08:18:10;;;;;;;1.80;1.70;;;;;;;;;;7396169;19;20133;-78
2022/04/24 08:20:36;;;;;;;3.80;2.10;;;;;;;;;;7396668;19;20576;-78
2022/04/24 08:23:03;;;;;;;1.30;1.00;;;;;;;;;;7395408;19;20137;-78
2022/04/24 08:25:29;;;;;;;0.90;0.63;;;;;;;;;;7392580;19;20160;-78
2022/04/24 08:27:56;;;;;;;0.77;0.60;;;;;;;;;;7394529;19;20133;-79
2022/04/24 08:30:23;;;;;;;1.53;0.57;;;;;;;;;;7395021;19;20140;-78
2022/04/24 08:32:50;;;;;;;1.70;0.67;;;;;;;;;;7396369;19;20588;-78
2022/04/24 08:35:17;;;;;;;1.43;0.70;;;;;;;;;;7394892;19;20137;-78
2022/04/24 08:37:43;;;;;;;0.67;0.67;;;;;;;;;;7395228;19;20125;-79
2022/04/24 08:40:11;;;;;;;0.60;0.60;;;;;;;;;;7395386;19;20121;-78
2022/04/24 08:42:37;;;;;;;1.50;0.70;;;;;;;;;;7395213;19;20204;-79
2022/04/24 08:45:04;;;;;;;0.70;0.70;;;;;;;;;;7391411;19;20169;-79
2022/04/24 08:47:30;;;;;;;1.33;0.80;;;;;;;;;;7394483;19;20133;-81
2022/04/24 08:49:58;;;;;;;0.60;0.60;;;;;;;;;;7394183;19;20139;-79
2022/04/24 08:52:24;;;;;;;0.50;0.50;;;;;;;;;;7395337;19;20131;-79
2022/04/24 08:55:02;;;;;;;0.83;0.83;;;;;;;;;;7391628;19;20160;-81
2022/04/24 08:57:30;;;;;;;2.53;0.90;;;;;;;;;;7398537;19;20131;-80
2022/04/24 09:00:04;;;;;;;0.60;0.60;;;;;;;;;;7406460;19;20129;-79
2022/04/24 09:02:30;;;;;;;0.83;0.83;;;;;;;;;;7408831;19;20598;-79
2022/04/24 09:04:56;;;;;;;0.90;0.70;;;;;;;;;;7393845;19;20142;-78
2022/04/24 09:07:24;;;;;;;1.57;0.60;;;;;;;;;;7391965;19;20163;-77
2022/04/24 09:09:53;;;;;;;0.50;0.50;;;;;;;;;;7393754;19;20121;-78
2022/04/24 09:12:24;;;;;;;0.70;0.70;;;;;;;;;;7395270;19;20599;-78
2022/04/24 09:15:06;;;;;;;0.60;0.60;;;;;;;;;;7394988;19;20144;-78
2022/04/24 09:17:35;;;;;;;0.93;0.83;;;;;;;;;;7394874;19;20145;-77
2022/04/24 09:20:01;;;;;;;0.70;0.70;;;;;;;;;;7393397;19;20172;-78
2022/04/24 09:22:28;;;;;;;0.80;0.80;;;;;;;;;;7394548;19;20113;-78
2022/04/24 09:24:56;;;;;;;0.80;0.67;;;;;;;;;;7392166;19;20193;-78
2022/04/24 09:27:37;;;;;;;0.90;0.70;;;;;;;;;;7394287;19;20125;-78
2022/04/24 09:30:09;;;;;;;0.50;0.50;;;;;;;;;;7395329;19;20590;-78
2022/04/24 09:32:46;;;;;;;1.50;0.67;;;;;;;;;;7395348;19;20144;-77
2022/04/24 09:35:22;;;;;;;0.73;0.60;;;;;;;;;;7391699;19;20156;-78
2022/04/24 09:37:48;;;;;;;0.80;0.70;;;;;;;;;;7393295;19;20135;-78
2022/04/24 09:40:34;;;;;;;0.70;0.70;;;;;;;;;;7393737;19;20114;-78
2022/04/24 09:43:00;;;;;;;0.60;0.60;;;;;;;;;;7393250;19;20137;-78
2022/04/24 09:45:26;;;;;;;1.03;0.70;;;;;;;;;;7394134;19;20132;-80
2022/04/24 09:50:57;;;;;;;0.70;0.70;;;;;;;;;;7396890;19;20104;-78
2022/04/24 09:53:23;;;;;;;0.57;0.57;;;;;;;;;;7391817;19;20117;-78
2022/04/24 09:55:50;;;;;;;0.80;0.67;;;;;;;;;;7388242;19;20136;-78
2022/04/24 09:58:16;;;;;;;1.43;0.60;;;;;;;;;;7390112;19;20166;-78
2022/04/24 10:00:44;;;;;;;0.50;0.50;;;;;;;;;;7387510;19;20121;-77
2022/04/24 10:03:10;;;;;;;0.97;0.70;;;;;;;;;;7387770;19;20181;-78
2022/04/24 10:05:38;;;;;;;1.33;0.57;;;;;;;;;;7387893;19;20129;-79
2022/04/24 10:08:06;;;;;;;0.80;0.80;;;;;;;;;;7387914;19;20196;-79
2022/04/24 10:10:32;;;;;;;0.80;0.63;;;;;;;;;;7388638;19;20708;-79
2022/04/24 10:13:01;;;;;;;0.87;0.60;;;;;;;;;;7388674;19;20487;-79
2022/04/24 10:15:27;;;;;;;1.00;0.70;;;;;;;;;;7389669;19;20528;-78
2022/04/24 10:17:57;;;;;;;0.60;0.60;;;;;;;;;;7388306;19;20215;-78
2022/04/24 10:20:42;;;;;;;0.50;0.50;;;;;;;;;;7397336;19;20117;-77
2022/04/24 10:23:12;;;;;;;0.60;0.60;;;;;;;;;;7396476;19;20122;-78
2022/04/24 10:25:44;;;;;;;0.60;0.60;;;;;;;;;;7383432;19;20140;-78
2022/04/24 10:28:10;;;;;;;0.50;0.50;;;;;;;;;;7385013;19;20136;-78
2022/04/24 10:30:39;;;;;;;0.97;0.63;;;;;;;;;;7383773;19;20188;-79
2022/04/24 10:33:24;;;;;;;1.37;1.23;;;;;;;;;;7382708;19;20253;-78
2022/04/24 10:35:57;;;;;;;1.60;1.20;;;;;;;;;;7384488;19;20149;-78
2022/04/24 10:38:25;;;;;;;1.83;1.70;;;;;;;;;;7383427;19;20600;-78
2022/04/24 10:41:01;;;;;;;0.60;0.60;;;;;;;;;;7385139;19;20109;-78
2022/04/24 10:43:41;;;;;;;0.63;0.60;;;;;;;;;;7386356;19;20120;-77
2022/04/24 10:46:19;;;;;;;0.80;0.70;;;;;;;;;;7383686;19;20141;-78
2022/04/24 10:48:46;;;;;;;0.50;0.50;;;;;;;;;;7382370;19;20157;-78
2022/04/24 10:51:12;;;;;;;0.50;0.50;;;;;;;;;;7384942;19;20154;-79
2022/04/24 10:53:52;;;;;;;0.73;0.60;;;;;;;;;;7386952;19;20659;-80
2022/04/24 10:56:18;;;;;;;0.50;0.50;;;;;;;;;;7384570;19;20140;-78
2022/04/24 10:58:45;;;;;;;0.80;0.60;;;;;;;;;;7383669;19;20153;-80
2022/04/24 11:01:14;;;;;;;0.70;0.60;;;;;;;;;;7383116;19;20527;-77
2022/04/24 11:03:41;;;;;;;0.60;0.60;;;;;;;;;;7385951;19;20145;-86
2022/04/24 11:06:16;;;;;;;0.47;0.47;;;;;;;;;;7384706;19;20140;-80
2022/04/24 11:08:42;;;;;;;0.60;0.60;;;;;;;;;;7391554;19;20475;-79
2022/04/24 11:11:09;;;;;;;0.70;0.60;;;;;;;;;;7392753;19;20513;-78
2022/04/24 11:13:37;;;;;;;0.50;0.50;;;;;;;;;;7392866;19;20180;-83
2022/04/24 11:16:03;;;;;;;0.40;0.40;;;;;;;;;;7393542;19;20651;-84
2022/04/24 11:18:29;;;;;;;0.67;0.57;;;;;;;;;;7392096;19;20152;-85
2022/04/24 11:21:03;;;;;;;0.50;0.50;;;;;;;;;;7392890;19;20121;-83
2022/04/24 11:23:30;;;;;;;0.47;0.47;;;;;;;;;;7391551;19;20488;-84
2022/04/24 11:25:57;;;;;;;0.60;0.60;;;;;;;;;;7390933;19;20133;-79
2022/04/24 11:28:35;;;;;;;0.60;0.60;;;;;;;;;;7391488;19;20113;-82
2022/04/24 11:31:08;;;;;;;0.70;0.60;;;;;;;;;;7390837;19;20464;-79
2022/04/24 11:33:35;;;;;;;0.93;0.70;;;;;;;;;;7390683;19;20614;-79
2022/04/24 11:36:05;;;;;;;0.60;0.60;;;;;;;;;;7389347;19;20154;-82
2022/04/24 11:38:31;;;;;;;0.60;0.50;;;;;;;;;;7392338;19;20128;-79
2022/04/24 11:41:01;;;;;;;0.80;0.60;;;;;;;;;;7391486;19;20682;-79
2022/04/24 11:43:27;;;;;;;1.07;0.73;;;;;;;;;;7389345;19;20121;-79
2022/04/24 11:51:24;;;;;;;1.97;0.70;;;;;;;;;;7392512;19;20120;-79
2022/04/24 11:53:50;;;;;;;1.10;0.80;;;;;;;;;;7387990;19;20165;-79
2022/04/24 11:56:16;;;;;;;0.60;0.60;;;;;;;;;;7388002;19;20160;-79
2022/04/24 11:58:44;;;;;;;0.70;0.67;;;;;;;;;;7392032;19;20146;-80
2022/04/24 12:01:13;;;;;;;1.20;0.90;;;;;;;;;;7392103;19;20129;-79
2022/04/24 12:03:46;;;;;;;1.83;0.70;;;;;;;;;;7391763;19;20140;-79
2022/04/24 12:06:13;;;;;;;0.60;0.60;;;;;;;;;;7388030;19;20181;-80
2022/04/24 12:08:43;;;;;;;0.90;0.80;;;;;;;;;;7387893;19;20460;-79
2022/04/24 12:11:09;;;;;;;0.60;0.60;;;;;;;;;;7388472;19;20205;-80
2022/04/24 12:13:35;;;;;;;0.80;0.60;;;;;;;;;;7385234;19;20545;-80
2022/04/24 12:16:01;;;;;;;0.73;0.60;;;;;;;;;;7386641;19;20188;-81
2022/04/24 12:18:28;;;;;;;1.53;0.80;;;;;;;;;;7388100;19;20618;-77
2022/04/24 12:20:55;;;;;;;1.10;0.73;;;;;;;;;;7389446;19;20425;-77
2022/04/24 12:23:22;;;;;;;0.70;0.70;;;;;;;;;;7385797;19;20137;-78
2022/04/24 12:25:48;;;;;;;1.00;0.40;;;;;;;;;;7390750;19;20174;-79
2022/04/24 12:28:27;;;;;;;2.50;0.63;;;;;;;;;;7389599;19;20656;-78
2022/04/24 12:30:53;;;;;;;0.70;0.70;;;;;;;;;;7393074;19;20117;-79
2022/04/24 12:33:19;;;;;;;0.70;0.70;;;;;;;;;;7397064;19;20587;-79
2022/04/24 12:35:45;;;;;;;0.77;0.70;;;;;;;;;;7398740;19;20528;-79
2022/04/24 12:38:14;;;;;;;1.10;0.60;;;;;;;;;;7396179;19;20125;-79
2022/04/24 12:40:40;;;;;;;1.03;0.80;;;;;;;;;;7388135;19;20125;-79
2022/04/24 12:43:06;;;;;;;1.60;0.60;;;;;;;;;;7393127;19;20121;-82
2022/04/24 12:45:33;;;;;;;0.63;0.50;;;;;;;;;;7390593;19;20209;-81
2022/04/24 12:47:59;;;;;;;1.03;0.60;;;;;;;;;;7391679;19;20153;-81
2022/04/24 12:50:25;;;;;;;1.17;0.60;;;;;;;;;;7391258;19;20153;-79
2022/04/24 12:52:51;;;;;;;1.37;0.70;;;;;;;;;;7391663;19;20188;-79
2022/04/24 12:55:17;;;;;;;0.53;0.50;;;;;;;;;;7387269;19;20242;-80
2022/04/24 12:57:43;;;;;;;1.40;0.50;;;;;;;;;;7391319;19;20614;-79
2022/04/24 13:00:11;;;;;;;2.77;1.10;;;;;;;;;;7391079;19;20216;-79
2022/04/24 13:02:37;;;;;;;0.50;0.50;;;;;;;;;;7389054;19;20141;-79
2022/04/24 13:05:03;;;;;;;0.50;0.50;;;;;;;;;;7384725;19;20164;-82
2022/04/24 13:07:32;;;;;;;0.90;0.50;;;;;;;;;;7387961;19;20137;-82
2022/04/24 13:10:05;;;;;;;1.07;0.60;;;;;;;;;;7386504;19;20144;-79
2022/04/24 13:12:32;;;;;;;0.53;0.53;;;;;;;;;;7387753;19;20131;-79
2022/04/24 13:14:58;;;;;;;0.60;0.60;;;;;;;;;;7388082;19;20137;-79
2022/04/24 13:20:10;;;;;;;0.87;0.87;;;;;;;;;;7390814;19;20143;-78
2022/04/24 13:22:36;;;;;;;0.50;0.50;;;;;;;;;;7388140;19;20125;-78
2022/04/24 13:25:03;;;;;;;0.67;0.50;;;;;;;;;;7385678;19;20168;-79
2022/04/24 13:27:32;;;;;;;0.70;0.47;;;;;;;;;;7392256;19;20150;-81
2022/04/24 13:29:58;;;;;;;0.97;0.50;;;;;;;;;;7396605;19;20148;-79
2022/04/24 13:32:27;;;;;;;0.50;0.50;;;;;;;;;;7394768;19;20212;-79
2022/04/24 13:34:53;;;;;;;0.60;0.50;;;;;;;;;;7387794;19;20643;-78
2022/04/24 13:40:05;;;;;;;0.50;0.50;;;;;;;;;;7392747;19;20163;-79
2022/04/24 13:42:31;;;;;;;0.50;0.50;;;;;;;;;;7392097;19;20148;-78
2022/04/24 13:45:04;;;;;;;1.27;1.17;;;;;;;;;;7392133;19;20160;-79
2022/04/24 13:47:31;;;;;;;0.53;0.47;;;;;;;;;;7394842;19;20120;-79
2022/04/24 13:49:57;;;;;;;0.63;0.63;;;;;;;;;;7394127;19;20125;-79
2022/04/24 13:52:23;;;;;;;0.67;0.63;;;;;;;;;;7393809;19;20588;-78
2022/04/24 13:54:50;;;;;;;0.70;0.60;;;;;;;;;;7394590;19;20132;-78
2022/04/24 13:57:16;;;;;;;1.20;0.60;;;;;;;;;;7394671;19;20133;-78
2022/04/24 13:59:43;;;;;;;0.90;0.70;;;;;;;;;;7394727;19;20133;-78
2022/04/24 14:02:10;;;;;;;0.90;0.80;;;;;;;;;;7395988;19;20217;-78
2022/04/24 14:04:36;;;;;;;0.80;0.60;;;;;;;;;;7394378;19;20129;-78
2022/04/24 14:07:02;;;;;;;0.73;0.60;;;;;;;;;;7393560;19;20133;-78
2022/04/24 14:09:28;;;;;;;2.97;0.70;;;;;;;;;;7397217;19;20538;-80
2022/04/24 14:11:54;;;;;;;1.30;0.83;;;;;;;;;;7396542;19;20596;-79
2022/04/24 14:14:20;;;;;;;1.43;1.00;;;;;;;;;;7400703;19;20140;-78
2022/04/24 14:16:46;;;;;;;0.93;0.73;;;;;;;;;;7398832;19;20474;-78
2022/04/24 14:19:12;;;;;;;0.80;0.70;;;;;;;;;;7391086;19;20113;-79
2022/04/24 14:21:38;;;;;;;2.10;0.93;;;;;;;;;;7391286;19;20136;-79
2022/04/24 14:24:05;;;;;;;2.13;0.97;;;;;;;;;;7389289;19;20164;-78
2022/04/24 14:26:31;;;;;;;1.50;0.90;;;;;;;;;;7394151;19;20117;-78
2022/04/24 14:28:57;;;;;;;1.60;0.70;;;;;;;;;;7392180;19;20201;-80
2022/04/24 14:31:25;;;;;;;0.50;0.50;;;;;;;;;;7387473;19;20132;-79
2022/04/24 14:33:52;;;;;;;1.10;1.00;;;;;;;;;;7379272;19;20137;-79
2022/04/24 14:36:18;;;;;;;0.90;0.73;;;;;;;;;;7380016;19;20491;-79
2022/04/24 14:38:45;;;;;;;0.70;0.70;;;;;;;;;;7375132;19;20179;-79
2022/04/24 14:41:11;;;;;;;0.80;0.70;;;;;;;;;;7373729;19;20611;-79
2022/04/24 14:43:38;;;;;;;1.67;0.77;;;;;;;;;;7378531;19;20161;-79
2022/04/24 14:57:04;;;;;;;1.07;0.80;;;;;;;;;;7378609;19;20663;-79
2022/04/24 14:59:31;;;;;;;1.13;0.70;;;;;;;;;;7377547;19;20129;-79
2022/04/24 15:01:58;;;;;;;2.73;0.90;;;;;;;;;;7380102;19;20165;-79
2022/04/24 15:04:25;;;;;;;1.10;0.80;;;;;;;;;;7389838;19;20522;-78
2022/04/24 15:06:52;;;;;;;1.33;0.70;;;;;;;;;;7394346;19;20663;-80
2022/04/24 15:09:18;;;;;;;1.60;0.80;;;;;;;;;;7392498;19;20129;-80
2022/04/24 15:11:44;;;;;;;0.97;0.90;;;;;;;;;;7378326;19;20137;-80
2022/04/24 15:14:11;;;;;;;1.37;0.90;;;;;;;;;;7369835;19;20172;-79
2022/04/24 15:16:37;;;;;;;1.07;0.90;;;;;;;;;;7379931;19;20145;-80
2022/04/24 15:19:04;;;;;;;1.67;1.10;;;;;;;;;;7372747;19;20137;-79
2022/04/24 15:21:30;;;;;;;1.27;0.93;;;;;;;;;;7379722;19;20148;-80
2022/04/24 15:24:05;;;;;;;1.27;0.90;;;;;;;;;;7378172;19;20702;-79
2022/04/24 15:26:32;;;;;;;1.27;1.00;;;;;;;;;;7378355;19;20133;-79
2022/04/24 15:28:59;;;;;;;2.37;1.70;;;;;;;;;;7376057;19;20129;-79
2022/04/24 15:31:25;;;;;;;9.33;6.67;;;;;;;;;;7383654;19;20130;-80
2022/04/24 15:33:51;;;;;;;1.30;1.07;;;;;;;;;;7383291;19;21015;-80
2022/04/24 15:36:18;;;;;;;1.47;1.10;;;;;;;;;;7384087;19;20221;-79
2022/04/24 15:38:44;;;;;;;1.10;1.00;;;;;;;;;;7381190;19;20147;-82
2022/04/24 15:41:11;;;;;;;1.37;1.10;;;;;;;;;;7384654;19;20155;-79
2022/04/24 15:43:37;;;;;;;1.90;1.00;;;;;;;;;;7378544;19;20172;-79
2022/04/24 15:46:03;;;;;;;2.20;1.20;;;;;;;;;;7380780;19;20129;-80
2022/04/24 15:48:30;;;;;;;1.70;1.30;;;;;;;;;;7378253;19;20158;-80
2022/04/24 15:50:56;;;;;;;1.57;1.27;;;;;;;;;;7375932;19;20710;-80
2022/04/24 15:53:23;;;;;;;1.50;1.40;;;;;;;;;;7381279;19;20129;-80
2022/04/24 15:55:49;;;;;;;2.60;1.30;;;;;;;;;;7381987;19;20129;-80
2022/04/24 15:58:15;;;;;;;2.20;1.20;;;;;;;;;;7382695;19;20141;-80
2022/04/24 16:00:42;;;;;;;1.60;1.50;;;;;;;;;;7379359;19;20498;-81
2022/04/24 16:03:08;;;;;;;1.70;1.60;;;;;;;;;;7393916;19;20172;-80
2022/04/24 16:05:35;;;;;;;1.10;1.00;;;;;;;;;;7401092;19;20165;-82
2022/04/24 16:08:02;;;;;;;1.70;1.23;;;;;;;;;;7405908;19;20355;-80
2022/04/24 16:10:28;;;;;;;2.77;1.37;;;;;;;;;;7384766;19;20140;-81
2022/04/24 16:12:55;;;;;;;2.07;1.20;;;;;;;;;;7376610;19;20140;-80
2022/04/24 16:15:21;;;;;;;2.90;1.70;;;;;;;;;;7388190;19;20197;-80
2022/04/24 16:17:47;;;;;;;1.60;1.50;;;;;;;;;;7391299;19;20140;-80
2022/04/24 16:20:14;;;;;;;3.60;2.13;;;;;;;;;;7397160;19;20161;-81
2022/04/24 16:22:42;;;;;;;2.90;1.63;;;;;;;;;;7404905;19;20125;-81
2022/04/24 16:25:11;;;;;;;2.70;1.73;;;;;;;;;;7400052;19;20193;-80
2022/04/24 16:27:39;;;;;;;1.40;1.23;;;;;;;;;;7394705;19;20145;-81
2022/04/24 16:30:13;;;;;;;1.60;1.13;;;;;;;;;;7402489;19;20137;-80
2022/04/24 16:32:52;;;;;;;1.33;1.23;;;;;;;;;;7410160;19;20164;-85
2022/04/24 16:38:00;;;;;;;2.83;1.33;;;;;;;;;;7414215;19;20180;-81
2022/04/24 16:40:29;;;;;;;1.27;1.07;;;;;;;;;;7423905;19;20137;-85
2022/04/24 16:42:57;;;;;;;1.17;1.10;;;;;;;;;;7415208;19;20137;-81
2022/04/24 16:45:44;;;;;;;1.60;1.30;;;;;;;;;;7416223;19;20668;-82
2022/04/24 16:48:20;;;;;;;2.07;1.30;;;;;;;;;;7419132;19;20484;-81
2022/04/24 16:59:29;;;;;;;1.30;1.20;;;;;;;;;;7417513;19;20128;-81
2022/04/24 17:02:03;;;;;;;1.40;1.30;;;;;;;;;;7420377;19;20190;-81
2022/04/24 17:04:58;;;;;;;1.17;1.07;;;;;;;;;;7419256;19;20171;-84
2022/04/24 17:08:05;;;;;;;1.40;1.00;;;;;;;;;;7418645;19;20144;-81
2022/04/24 17:11:16;;;;;;;1.10;1.00;;;;;;;;;;7417269;19;20131;-80
2022/04/24 17:14:26;;;;;;;0.90;0.90;;;;;;;;;;7412027;19;20164;-84
2022/04/24 17:20:34;;;;;;;1.60;1.40;;;;;;;;;;7423469;19;20136;-82
2022/04/24 18:03:34;;;;;;;1.57;0.80;;;;;;;;;;7423150;19;20111;-82
2022/04/24 18:08:45;;;;;;;0.87;0.87;;;;;;;;;;7413580;19;20192;-84
2022/04/24 18:11:16;;;;;;;0.87;0.87;;;;;;;;;;7414529;19;20132;-82
2022/04/24 18:14:11;;;;;;;9.33;6.63;;;;;;;;;;7404900;19;20161;-82
2022/04/24 18:17:08;;;;;;;3.07;1.00;;;;;;;;;;7404424;19;20141;-84
2022/04/24 18:23:11;;;;;;;1.30;1.20;;;;;;;;;;7422497;19;20145;-84
2022/04/24 18:31:54;;;;;;;0.80;0.80;;;;;;;;;;7409620;19;20138;-82
2022/04/24 18:34:20;;;;;;;1.27;0.90;;;;;;;;;;7373389;19;20188;-82
2022/04/24 18:39:35;;;;;;;0.93;0.80;;;;;;;;;;7380077;19;20517;-82
2022/04/24 18:42:05;;;;;;;2.50;2.30;;;;;;;;;;7382392;19;20141;-83
2022/04/24 18:44:31;;;;;;;6.90;5.50;;;;;;;;;;7383621;19;20212;-82
2022/04/24 18:47:06;;;;;;;3.47;3.17;;;;;;;;;;7384777;19;20129;-82